createdAt,value
2019-04-04T00:01:53.278Z,42.42
2019-04-04T00:04:23.174Z,42.99
2019-04-04T00:06:53.332Z,42.73
2019-04-04T00:09:23.319Z,42.18
2019-04-04T00:11:53.222Z,42.92
2019-04-04T00:14:23.955Z,44.03
2019-04-04T00:16:53.882Z,43.74
2019-04-04T00:19:23.763Z,43.44
2019-04-04T00:21:53.905Z,43.06
2019-04-04T00:24:24.574Z,42.57
2019-04-04T00:26:55.098Z,42.81
2019-04-04T00:29:25.047Z,42.86
2019-04-04T00:31:54.937Z,43.50
2019-04-04T00:34:27.755Z,43.60
2019-04-04T00:36:56.463Z,45.47
2019-04-04T00:39:26.450Z,44.21
2019-04-04T00:41:56.869Z,43.30
2019-04-04T00:44:27.040Z,43.79
2019-04-04T00:46:57.290Z,45.29
2019-04-04T00:49:27.214Z,45.12
2019-04-04T00:51:57.216Z,44.82
2019-04-04T00:54:27.215Z,45.37
2019-04-04T00:56:57.221Z,44.33
2019-04-04T00:59:27.378Z,46.14
2019-04-04T01:01:57.675Z,45.07
2019-04-04T01:04:30.811Z,45.53
2019-04-04T01:06:59.282Z,45.64
2019-04-04T01:09:29.222Z,46.24
2019-04-04T01:11:59.303Z,46.44
2019-04-04T01:14:29.951Z,45.21
2019-04-04T01:16:59.881Z,45.57
2019-04-04T01:19:29.826Z,46.17
2019-04-04T01:22:00.203Z,45.88
2019-04-04T01:24:30.192Z,45.72
2019-04-04T01:27:00.073Z,44.97
2019-04-04T01:29:30.084Z,44.55
2019-04-04T01:32:00.268Z,46.52
2019-04-04T01:34:30.174Z,46.89
2019-04-04T01:37:00.150Z,46.34
2019-04-04T01:39:31.379Z,45.66
2019-04-04T01:42:02.241Z,45.78
2019-04-04T01:44:32.235Z,44.78
2019-04-04T01:47:02.165Z,46.68
2019-04-04T01:49:32.252Z,46.89
2019-04-04T01:52:03.023Z,46.97
2019-04-04T01:54:32.964Z,48.87
2019-04-04T01:57:03.059Z,46.35
2019-04-04T01:59:32.949Z,47.38
2019-04-04T02:02:02.982Z,47.24
2019-04-04T02:04:32.903Z,47.88
2019-04-04T02:07:02.898Z,46.40
2019-04-04T02:09:34.532Z,45.81
2019-04-04T02:12:07.600Z,45.61
2019-04-04T02:14:36.431Z,46.33
2019-04-04T02:17:06.441Z,46.63
2019-04-04T02:19:36.323Z,46.20
2019-04-04T02:22:06.719Z,48.82
2019-04-04T02:24:36.909Z,47.64
2019-04-04T02:27:07.550Z,49.24
2019-04-04T02:29:37.537Z,48.32
2019-04-04T02:32:13.765Z,50.82
2019-04-04T02:34:43.662Z,48.86
2019-04-04T02:37:13.598Z,47.63
2019-04-04T02:39:43.632Z,48.89
2019-04-04T02:42:13.540Z,49.08
2019-04-04T02:44:43.664Z,47.44
2019-04-04T02:47:16.801Z,47.24
2019-04-04T02:49:45.244Z,49.12
2019-04-04T02:52:15.494Z,47.71
2019-04-04T02:54:45.606Z,48.06
2019-04-04T02:57:15.494Z,48.74
2019-04-04T02:59:45.959Z,49.46
2019-04-04T03:02:15.943Z,50.20
2019-04-04T03:04:47.176Z,48.39
2019-04-04T03:07:17.577Z,47.72
2019-04-04T03:09:48.124Z,49.09
2019-04-04T03:12:18.176Z,48.82
2019-04-04T03:14:50.551Z,48.98
2019-04-04T03:17:19.859Z,47.32
2019-04-04T03:19:50.085Z,49.69
2019-04-04T03:22:19.964Z,49.44
2019-04-04T03:24:50.072Z,50.38
2019-04-04T03:27:20.043Z,49.57
2019-04-04T03:29:50.534Z,48.02
2019-04-04T03:32:20.884Z,49.88
2019-04-04T03:34:51.795Z,50.83
2019-04-04T03:37:22.198Z,51.74
2019-04-04T03:39:53.320Z,49.92
2019-04-04T03:42:23.731Z,49.03
2019-04-04T03:44:54.519Z,47.77
2019-04-04T03:47:24.666Z,48.54
2019-04-04T03:49:57.530Z,48.18
2019-04-04T03:52:26.255Z,49.00
2019-04-04T03:54:56.691Z,51.68
2019-04-04T03:57:26.801Z,50.87
2019-04-04T03:59:56.737Z,49.90
2019-04-04T04:02:27.156Z,50.00
2019-04-04T04:05:00.585Z,48.61
2019-04-04T04:07:28.978Z,49.95
2019-04-04T04:10:00.348Z,50.27
2019-04-04T04:12:30.894Z,51.15
2019-04-04T04:15:01.098Z,50.63
2019-04-04T04:17:31.002Z,50.03
2019-04-04T04:20:04.020Z,50.57
2019-04-04T04:22:32.961Z,50.24
2019-04-04T04:25:03.757Z,50.76
2019-04-04T04:27:35.686Z,50.54
2019-04-04T04:30:07.601Z,49.17
2019-04-04T04:32:37.802Z,50.03
2019-04-04T04:35:09.042Z,50.49
2019-04-04T04:37:39.558Z,51.25
2019-04-04T04:40:13.852Z,51.18
2019-04-04T04:42:41.788Z,50.07
2019-04-04T04:45:12.503Z,50.70
2019-04-04T04:47:42.583Z,50.07
2019-04-04T04:50:12.783Z,51.44
2019-04-04T04:52:46.523Z,51.36
2019-04-04T04:55:14.554Z,48.92
2019-04-04T04:57:44.478Z,53.15
2019-04-04T05:00:16.001Z,50.82
2019-04-04T05:02:47.205Z,51.58
2019-04-04T05:05:17.195Z,51.98
2019-04-04T05:07:47.156Z,51.15
2019-04-04T05:10:17.714Z,51.63
2019-04-04T05:12:47.638Z,51.56
2019-04-04T05:15:17.659Z,49.97
2019-04-04T05:17:47.696Z,50.44
2019-04-04T05:20:17.873Z,50.47
2019-04-04T05:22:47.830Z,52.46
2019-04-04T05:25:18.033Z,50.80
2019-04-04T05:27:47.969Z,50.73
2019-04-04T05:30:20.200Z,48.79
2019-04-04T05:32:53.161Z,50.05
2019-04-04T05:35:21.915Z,48.61
2019-04-04T05:37:51.831Z,49.05
2019-04-04T05:40:23.559Z,49.30
2019-04-04T05:42:53.822Z,48.41
2019-04-04T05:45:23.713Z,45.53
2019-04-04T05:47:56.348Z,44.45
2019-04-04T05:50:25.713Z,47.17
2019-04-04T05:52:55.926Z,48.61
2019-04-04T05:55:26.160Z,46.24
2019-04-04T05:57:56.066Z,47.42
2019-04-04T06:00:27.421Z,43.95
2019-04-04T06:02:58.338Z,48.06
2019-04-04T06:05:28.248Z,47.77
2019-04-04T06:07:58.723Z,46.32
2019-04-04T06:10:28.646Z,45.81
2019-04-04T06:12:58.558Z,45.38
2019-04-04T06:15:30.091Z,45.63
2019-04-04T06:18:00.372Z,45.97
2019-04-04T06:20:30.432Z,46.58
2019-04-04T06:23:00.941Z,48.28
2019-04-04T06:25:34.406Z,48.38
2019-04-04T06:28:03.125Z,46.89
2019-04-04T06:30:42.693Z,49.92
2019-04-04T06:33:05.117Z,49.25
2019-04-04T06:35:39.535Z,50.14
2019-04-04T06:38:08.529Z,49.08
2019-04-04T06:40:38.853Z,50.34
2019-04-04T06:43:11.600Z,51.26
2019-04-04T06:45:40.544Z,48.53
2019-04-04T06:48:10.482Z,48.70
2019-04-04T06:50:42.986Z,49.33
2019-04-04T06:53:12.409Z,46.90
2019-04-04T06:55:42.371Z,46.95
2019-04-04T06:58:12.848Z,49.06
2019-04-04T07:00:43.254Z,50.30
2019-04-04T07:03:14.802Z,50.28
2019-04-04T07:05:44.835Z,50.05
2019-04-04T07:08:15.904Z,47.64
2019-04-04T07:10:57.372Z,48.20
2019-04-04T07:13:22.192Z,49.78
2019-04-04T07:16:05.691Z,48.04
2019-04-04T07:18:21.667Z,46.05
2019-04-04T07:20:51.770Z,44.87
2019-04-04T07:23:22.081Z,45.60
2019-04-04T07:25:53.533Z,46.20
2019-04-04T07:28:23.684Z,46.41
2019-04-04T07:30:54.697Z,46.34
2019-04-04T07:33:25.193Z,47.39
2019-04-04T07:35:55.216Z,47.75
2019-04-04T07:38:26.616Z,48.31
2019-04-04T07:40:56.858Z,46.13
2019-04-04T07:43:27.037Z,44.99
2019-04-04T07:45:59.696Z,46.97
2019-04-04T07:48:28.858Z,48.78
2019-04-04T07:50:59.282Z,47.86
2019-04-04T07:53:29.547Z,48.83
2019-04-04T07:55:59.870Z,47.06
2019-04-04T07:58:29.819Z,45.06
2019-04-04T08:00:59.800Z,44.05
2019-04-04T08:03:29.736Z,44.62
2019-04-04T08:05:59.808Z,44.11
2019-04-04T08:08:29.762Z,43.35
2019-04-04T08:11:00.387Z,42.75
2019-04-04T08:13:30.334Z,44.43
2019-04-04T08:16:00.421Z,45.22
2019-04-04T08:18:30.441Z,45.03
2019-04-04T08:21:00.350Z,43.27
2019-04-04T08:23:30.337Z,44.07
2019-04-04T08:26:00.690Z,46.35
2019-04-04T08:28:30.735Z,53.57
2019-04-04T08:31:00.659Z,55.63
2019-04-04T08:33:30.774Z,45.70
2019-04-04T08:36:06.405Z,42.47
2019-04-04T08:38:33.122Z,42.97
2019-04-04T08:41:03.054Z,45.08
2019-04-04T08:43:33.263Z,45.64
2019-04-04T08:46:03.242Z,44.17
2019-04-04T08:48:33.240Z,44.41
2019-04-04T08:51:03.232Z,45.27
2019-04-04T08:53:39.736Z,45.29
2019-04-04T08:56:05.565Z,41.97
2019-04-04T08:58:35.829Z,40.94
2019-04-04T09:01:06.791Z,40.89
2019-04-04T09:03:36.938Z,40.39
2019-04-04T09:06:07.246Z,41.00
2019-04-04T09:08:37.143Z,40.83
2019-04-04T09:11:07.140Z,43.74
2019-04-04T09:13:37.035Z,40.96
2019-04-04T09:16:07.027Z,40.59
2019-04-04T09:18:37.191Z,43.56
2019-04-04T09:21:07.120Z,42.59
2019-04-04T09:23:37.086Z,41.62
2019-04-04T09:26:07.291Z,43.40
2019-04-04T09:28:37.399Z,45.12
2019-04-04T09:31:07.535Z,44.47
2019-04-04T09:33:37.458Z,43.95
2019-04-04T09:36:07.543Z,44.44
2019-04-04T09:38:37.460Z,43.19
2019-04-04T09:41:07.616Z,43.88
2019-04-04T09:43:37.733Z,43.32
2019-04-04T09:46:07.654Z,44.17
2019-04-04T09:48:37.560Z,42.29
2019-04-04T09:51:07.740Z,43.48
2019-04-04T09:53:52.375Z,43.80
2019-04-04T09:56:09.892Z,43.79
2019-04-04T09:58:39.814Z,44.19
2019-04-04T10:01:10.081Z,43.99
2019-04-04T10:03:40.146Z,44.37
2019-04-04T10:06:10.389Z,41.21
2019-04-04T10:08:40.315Z,40.17
2019-04-04T10:11:11.065Z,40.95
2019-04-04T10:13:41.058Z,43.18
2019-04-04T10:16:14.470Z,44.22
2019-04-04T10:18:44.546Z,42.67
2019-04-04T10:21:14.920Z,44.08
2019-04-04T10:23:45.103Z,44.24
2019-04-04T10:26:15.181Z,44.03
2019-04-04T10:28:45.437Z,42.33
2019-04-04T10:31:15.796Z,41.22
2019-04-04T10:33:45.802Z,41.15
2019-04-04T10:36:16.220Z,41.48
2019-04-04T10:38:46.214Z,41.32
2019-04-04T10:41:16.492Z,40.78
2019-04-04T10:43:46.420Z,41.39
2019-04-04T10:46:16.601Z,42.58
2019-04-04T10:48:46.661Z,40.43
2019-04-04T10:51:16.869Z,41.49
2019-04-04T10:53:47.049Z,39.63
2019-04-04T10:56:16.926Z,41.51
2019-04-04T10:58:46.908Z,41.79
2019-04-04T11:01:16.950Z,42.19
2019-04-04T11:03:46.891Z,41.89
2019-04-04T11:06:16.915Z,40.40
2019-04-04T11:08:46.907Z,40.74
2019-04-04T11:11:16.849Z,40.17
2019-04-04T11:13:47.016Z,38.65
2019-04-04T11:16:24.533Z,40.13
2019-04-04T11:18:48.860Z,39.45
2019-04-04T11:21:19.190Z,38.82
2019-04-04T11:23:49.186Z,39.36
2019-04-04T11:26:19.359Z,39.71
2019-04-04T11:28:49.716Z,38.70
2019-04-04T11:31:19.886Z,38.56
2019-04-04T11:33:50.348Z,38.83
2019-04-04T11:36:20.561Z,40.26
2019-04-04T11:38:50.681Z,39.52
2019-04-04T11:41:20.660Z,40.18
2019-04-04T11:43:50.635Z,38.45
2019-04-04T11:46:20.927Z,39.28
2019-04-04T11:48:51.489Z,40.04
2019-04-04T11:51:21.544Z,39.02
2019-04-04T11:53:51.572Z,38.69
2019-04-04T11:56:21.710Z,38.12
2019-04-04T11:58:51.662Z,36.88
2019-04-04T12:01:22.034Z,36.08
2019-04-04T12:03:51.946Z,36.16
2019-04-04T12:06:21.913Z,37.29
2019-04-04T12:08:51.829Z,37.96
2019-04-04T12:11:22.769Z,37.02
2019-04-04T12:13:53.331Z,36.35
2019-04-04T12:16:23.494Z,36.33
2019-04-04T12:18:53.600Z,36.75
2019-04-04T12:21:23.668Z,37.47
2019-04-04T12:23:53.724Z,36.20
2019-04-04T12:26:23.773Z,38.93
2019-04-04T12:28:53.745Z,38.41
2019-04-04T12:31:23.728Z,36.84
2019-04-04T12:33:53.828Z,35.48
2019-04-04T12:36:25.005Z,35.30
2019-04-04T12:38:55.352Z,35.24
2019-04-04T12:41:28.126Z,36.82
2019-04-04T12:43:57.303Z,36.97
2019-04-04T12:46:27.525Z,37.21
2019-04-04T12:48:57.579Z,35.38
2019-04-04T12:51:27.677Z,35.25
2019-04-04T12:53:57.842Z,34.64
2019-04-04T12:56:27.957Z,33.91
2019-04-04T12:58:58.337Z,35.03
2019-04-04T13:01:28.400Z,34.38
2019-04-04T13:03:58.795Z,34.96
2019-04-04T13:06:28.791Z,36.21
2019-04-04T13:08:58.948Z,35.32
2019-04-04T13:11:29.065Z,34.57
2019-04-04T13:13:59.268Z,35.21
2019-04-04T13:16:29.389Z,33.97
2019-04-04T13:19:00.085Z,34.49
2019-04-04T13:21:30.838Z,34.83
2019-04-04T13:24:00.903Z,34.41
2019-04-04T13:26:31.147Z,35.52
2019-04-04T13:29:01.354Z,35.18
2019-04-04T13:31:31.335Z,35.59
2019-04-04T13:34:01.329Z,35.49
2019-04-04T13:36:31.350Z,35.50
2019-04-04T13:39:01.778Z,36.13
2019-04-04T13:41:32.055Z,35.72
2019-04-04T13:44:02.670Z,35.16
2019-04-04T13:46:32.665Z,35.25
2019-04-04T13:49:02.811Z,35.07
2019-04-04T13:51:32.973Z,34.49
2019-04-04T13:54:03.239Z,34.73
2019-04-04T13:56:33.573Z,34.75
2019-04-04T13:59:05.846Z,34.43
2019-04-04T14:01:35.857Z,34.36
2019-04-04T14:04:06.396Z,34.16
2019-04-04T14:06:37.061Z,33.95
2019-04-04T14:09:12.080Z,34.79
2019-04-04T14:11:41.881Z,34.59
2019-04-04T14:14:12.125Z,34.64
2019-04-04T14:16:42.306Z,34.69
2019-04-04T14:19:12.275Z,33.85
2019-04-04T14:21:42.889Z,33.46
2019-04-04T14:24:14.322Z,32.98
2019-04-04T14:26:46.237Z,33.94
2019-04-04T14:29:26.828Z,34.81
2019-04-04T14:31:48.348Z,33.53
2019-04-04T14:34:18.367Z,34.23
2019-04-04T14:36:48.775Z,33.84
2019-04-04T14:39:18.926Z,34.37
2019-04-04T14:41:49.470Z,35.00
2019-04-04T14:44:19.443Z,33.93
2019-04-04T14:46:49.376Z,33.55
2019-04-04T14:49:19.387Z,33.62
2019-04-04T14:51:49.397Z,33.66
2019-04-04T14:54:19.582Z,33.75
2019-04-04T14:56:49.595Z,34.11
2019-04-04T14:59:19.675Z,34.12
2019-04-04T15:01:49.654Z,34.26
2019-04-04T15:04:19.646Z,33.66
2019-04-04T15:06:49.885Z,34.19
2019-04-04T15:09:19.848Z,33.66
2019-04-04T15:11:49.796Z,33.42
2019-04-04T15:14:19.812Z,32.70
2019-04-04T15:16:49.973Z,32.81
2019-04-04T15:19:19.938Z,31.96
2019-04-04T15:21:50.087Z,31.84
2019-04-04T15:24:20.041Z,32.39
2019-04-04T15:26:49.993Z,33.02
2019-04-04T15:29:20.218Z,33.34
2019-04-04T15:31:50.176Z,33.20
2019-04-04T15:34:20.123Z,32.66
2019-04-04T15:36:50.121Z,33.50
2019-04-04T15:39:20.572Z,32.00
2019-04-04T15:41:50.522Z,32.99
2019-04-04T15:44:20.565Z,33.65
2019-04-04T15:46:50.490Z,33.09
2019-04-04T15:49:20.420Z,32.19
2019-04-04T15:51:50.436Z,32.78
2019-04-04T15:54:20.426Z,32.56
2019-04-04T15:56:50.621Z,32.09
2019-04-04T15:59:20.549Z,33.05
2019-04-04T16:01:50.952Z,33.48
2019-04-04T16:04:21.238Z,33.20
2019-04-04T16:06:51.404Z,32.07
2019-04-04T16:09:21.716Z,32.65
2019-04-04T16:11:51.620Z,31.71
2019-04-04T16:14:21.624Z,31.56
2019-04-04T16:16:51.535Z,32.31
2019-04-04T16:19:21.522Z,32.71
2019-04-04T16:21:51.520Z,32.53
2019-04-04T16:24:21.808Z,32.36
2019-04-04T16:26:51.757Z,31.89
2019-04-04T16:29:21.942Z,31.64
2019-04-04T16:31:51.848Z,31.21
2019-04-04T16:34:21.843Z,32.06
2019-04-04T16:36:51.954Z,32.09
2019-04-04T16:39:21.929Z,31.35
2019-04-04T16:42:01.684Z,31.23
2019-04-04T16:44:23.613Z,31.74
2019-04-04T16:46:53.948Z,32.65
2019-04-04T16:49:24.037Z,32.77
2019-04-04T16:51:54.283Z,33.21
2019-04-04T16:54:24.225Z,33.37
2019-04-04T16:56:54.149Z,33.51
2019-04-04T16:59:24.109Z,33.34
2019-04-04T17:01:54.057Z,33.45
2019-04-04T17:04:24.575Z,32.73
2019-04-04T17:06:54.988Z,33.38
2019-04-04T17:09:24.915Z,33.37
2019-04-04T17:11:54.822Z,33.58
2019-04-04T17:14:25.839Z,33.02
2019-04-04T17:16:55.835Z,34.29
2019-04-04T17:19:25.835Z,34.60
2019-04-04T17:21:55.902Z,35.08
2019-04-04T17:24:25.885Z,34.54
2019-04-04T17:26:57.456Z,34.93
2019-04-04T17:29:27.680Z,35.24
2019-04-04T17:31:57.671Z,35.21
2019-04-04T17:34:28.486Z,35.30
2019-04-04T17:36:58.841Z,35.34
2019-04-04T17:39:28.967Z,35.32
2019-04-04T17:41:58.940Z,34.91
2019-04-04T17:44:28.997Z,35.74
2019-04-04T17:46:59.164Z,35.66
2019-04-04T17:49:29.524Z,35.58
2019-04-04T17:51:59.676Z,35.48
2019-04-04T17:54:29.634Z,36.16
2019-04-04T17:57:00.383Z,36.46
2019-04-04T17:59:30.584Z,37.02
2019-04-04T18:02:00.632Z,36.56
2019-04-04T18:04:30.906Z,36.04
2019-04-04T18:07:10.779Z,35.31
2019-04-04T18:09:40.760Z,34.88
2019-04-04T18:12:10.697Z,35.72
2019-04-04T18:14:41.163Z,37.18
2019-04-04T18:17:11.246Z,36.45
2019-04-04T18:19:41.239Z,35.95
2019-04-04T18:22:11.239Z,36.52
2019-04-04T18:24:41.458Z,36.02
2019-04-04T18:27:11.434Z,35.41
2019-04-04T18:29:41.491Z,35.84
2019-04-04T18:32:11.881Z,35.97
2019-04-04T18:34:41.876Z,37.03
2019-04-04T18:37:11.800Z,36.38
2019-04-04T18:39:41.771Z,36.41
2019-04-04T18:42:11.826Z,38.65
2019-04-04T18:44:42.107Z,38.00
2019-04-04T18:47:12.021Z,38.65
2019-04-04T18:49:42.360Z,37.97
2019-04-04T18:52:12.367Z,38.31
2019-04-04T18:54:42.357Z,37.77
2019-04-04T18:57:13.273Z,37.72
2019-04-04T18:59:43.732Z,38.54
2019-04-04T19:02:13.945Z,38.80
2019-04-04T19:04:44.079Z,37.26
2019-04-04T19:07:14.281Z,37.83
2019-04-04T19:09:44.238Z,38.54
2019-04-04T19:12:14.644Z,38.54
2019-04-04T19:14:44.633Z,38.15
2019-04-04T19:17:15.161Z,38.97
2019-04-04T19:19:45.242Z,37.64
2019-04-04T19:22:15.507Z,37.52
2019-04-04T19:24:45.518Z,37.39
2019-04-04T19:27:15.670Z,37.96
2019-04-04T19:29:46.006Z,37.47
2019-04-04T19:32:16.095Z,38.28
2019-04-04T19:34:46.309Z,38.02
2019-04-04T19:37:16.234Z,38.05
2019-04-04T19:39:46.783Z,37.23
2019-04-04T19:42:16.905Z,38.63
2019-04-04T19:44:53.249Z,39.48
2019-04-04T19:47:18.740Z,38.44
2019-04-04T19:49:48.732Z,38.64
2019-04-04T19:52:20.865Z,37.70
2019-04-04T19:54:50.849Z,38.15
2019-04-04T19:57:21.434Z,37.78
2019-04-04T19:59:51.528Z,37.82
2019-04-04T20:02:21.717Z,37.25
2019-04-04T20:04:51.714Z,36.98
2019-04-04T20:07:22.086Z,37.83
2019-04-04T20:09:52.103Z,39.02
2019-04-04T20:12:22.074Z,39.75
2019-04-04T20:14:52.461Z,39.04
2019-04-04T20:17:22.389Z,38.52
2019-04-04T20:19:52.420Z,38.53
2019-04-04T20:22:22.328Z,38.33
2019-04-04T20:24:52.634Z,40.06
2019-04-04T20:27:22.643Z,38.72
2019-04-04T20:29:52.601Z,40.04
2019-04-04T20:32:22.706Z,38.67
2019-04-04T20:34:52.704Z,38.06
2019-04-04T20:37:23.025Z,38.14
2019-04-04T20:39:53.373Z,39.74
2019-04-04T20:42:23.679Z,40.43
2019-04-04T20:44:53.676Z,40.18
2019-04-04T20:47:23.641Z,39.13
2019-04-04T20:49:53.943Z,39.36
2019-04-04T20:52:23.958Z,39.62
2019-04-04T20:54:54.255Z,39.62
2019-04-04T20:57:24.160Z,40.18
2019-04-04T20:59:54.429Z,40.39
2019-04-04T21:02:24.452Z,40.66
2019-04-04T21:04:54.731Z,41.39
2019-04-04T21:07:24.656Z,40.22
2019-04-04T21:09:55.206Z,40.14
2019-04-04T21:12:25.178Z,40.14
2019-04-04T21:14:55.239Z,40.04
2019-04-04T21:17:25.222Z,39.95
2019-04-04T21:19:55.150Z,41.31
2019-04-04T21:22:27.738Z,39.97
2019-04-04T21:24:57.060Z,40.82
2019-04-04T21:27:27.564Z,41.70
2019-04-04T21:29:57.589Z,40.72
2019-04-04T21:32:27.512Z,41.54
2019-04-04T21:34:57.622Z,40.13
2019-04-04T21:37:31.269Z,41.46
2019-04-04T21:40:01.470Z,42.12
2019-04-04T21:42:31.411Z,41.21
2019-04-04T21:45:01.651Z,40.89
2019-04-04T21:47:31.970Z,41.83
2019-04-04T21:50:02.021Z,42.39
2019-04-04T21:52:32.099Z,42.71
2019-04-04T21:55:02.105Z,42.06
2019-04-04T21:57:32.411Z,42.22
2019-04-04T22:00:02.385Z,42.13
2019-04-04T22:02:32.426Z,42.15
2019-04-04T22:05:02.344Z,41.89
2019-04-04T22:07:32.571Z,42.96
2019-04-04T22:10:03.575Z,42.40
2019-04-04T22:12:33.850Z,41.73
2019-04-04T22:15:04.807Z,42.10
2019-04-04T22:17:34.845Z,42.88
2019-04-04T22:20:05.499Z,41.63
2019-04-04T22:22:35.884Z,41.12
2019-04-04T22:25:06.890Z,42.95
2019-04-04T22:27:36.887Z,43.88
2019-04-04T22:30:08.631Z,43.57
2019-04-04T22:32:38.578Z,43.41
2019-04-04T22:35:09.040Z,43.97
2019-04-04T22:37:39.027Z,43.47
2019-04-04T22:40:18.242Z,42.43
2019-04-04T22:43:01.179Z,43.08
2019-04-04T22:45:31.199Z,42.80
2019-04-04T22:48:01.148Z,42.29
2019-04-04T22:50:31.399Z,42.17
2019-04-04T22:53:01.377Z,43.38
2019-04-04T22:55:31.316Z,42.67
2019-04-04T22:58:01.516Z,42.66
2019-04-04T23:00:31.746Z,41.97
2019-04-04T23:03:03.839Z,41.64
2019-04-04T23:05:33.829Z,43.58
2019-04-04T23:08:04.054Z,42.93
2019-04-04T23:10:34.256Z,42.94
2019-04-04T23:13:04.220Z,42.92
2019-04-04T23:15:34.281Z,43.77
2019-04-04T23:18:04.378Z,43.96
2019-04-04T23:20:34.442Z,43.66
2019-04-04T23:23:04.514Z,44.27
2019-04-04T23:25:34.618Z,44.39
2019-04-04T23:28:04.579Z,42.90
2019-04-04T23:30:34.502Z,43.57
2019-04-04T23:33:04.540Z,44.45
2019-04-04T23:35:34.525Z,43.39
2019-04-04T23:38:04.993Z,43.02
2019-04-04T23:40:35.296Z,42.98
2019-04-04T23:43:05.403Z,43.27
2019-04-04T23:45:35.381Z,43.06
2019-04-04T23:48:05.538Z,42.99
2019-04-04T23:50:36.072Z,44.61
2019-04-04T23:53:06.315Z,46.01
2019-04-04T23:55:36.536Z,45.56
2019-04-04T23:58:06.474Z,44.68
